createdAt,value
2023-03-21T00:01:58.220Z,99452.06
2023-03-21T00:04:33.186Z,99444.16
2023-03-21T00:07:05.654Z,99439.88
2023-03-21T00:09:33.098Z,99446.72
2023-03-21T00:12:01.788Z,99438.63
2023-03-21T00:14:30.857Z,99429.22
2023-03-21T00:16:58.556Z,99440.38
2023-03-21T00:19:26.686Z,99438.75
2023-03-21T00:22:07.089Z,99430.91
2023-03-21T00:24:36.546Z,99422.25
2023-03-21T00:29:52.432Z,99429.22
2023-03-21T00:32:21.561Z,99423.13
2023-03-21T00:35:38.339Z,99430.03
2023-03-21T00:37:37.662Z,99426.75
2023-03-21T00:40:16.388Z,99416.53
2023-03-21T00:42:51.178Z,99416.84
2023-03-21T00:45:19.482Z,99414.94
2023-03-21T00:47:47.083Z,99418.28
2023-03-21T00:50:14.684Z,99405.69
2023-03-21T00:52:42.634Z,99403.22
2023-03-21T00:55:16.006Z,99404.81
2023-03-21T00:57:47.466Z,99408.16
2023-03-21T01:00:20.596Z,99406.53
2023-03-21T01:03:08.595Z,99390.31
2023-03-21T01:06:00.283Z,99402.84
2023-03-21T01:08:35.211Z,99402.13
2023-03-21T01:11:13.340Z,99397.81
2023-03-21T01:13:53.055Z,99399.56
2023-03-21T01:16:25.565Z,99397.63
2023-03-21T01:18:53.492Z,99383.00
2023-03-21T01:21:20.941Z,99384.81
2023-03-21T01:23:48.746Z,99385.06
2023-03-21T01:26:16.310Z,99368.09
2023-03-21T01:28:45.723Z,99378.59
2023-03-21T01:31:16.522Z,99369.09
2023-03-21T01:33:44.396Z,99375.19
2023-03-21T01:36:18.799Z,99370.06
2023-03-21T01:38:49.331Z,99371.06
2023-03-21T01:41:41.942Z,99371.44
2023-03-21T01:44:18.827Z,99360.81
2023-03-21T01:49:49.836Z,99368.81
2023-03-21T01:52:39.302Z,99371.22
2023-03-21T01:55:28.796Z,99372.19
2023-03-21T01:58:07.590Z,99362.44
2023-03-21T02:01:02.771Z,99360.66
2023-03-21T02:03:50.687Z,99364.81
2023-03-21T02:07:07.933Z,99358.56
2023-03-21T02:09:46.906Z,99354.91
2023-03-21T02:12:18.823Z,99353.09
2023-03-21T02:14:52.388Z,99351.47
2023-03-21T02:18:14.163Z,99346.69
2023-03-21T02:21:08.613Z,99347.84
2023-03-21T02:24:48.803Z,99348.81
2023-03-21T02:27:24.522Z,99352.72
2023-03-21T02:30:33.450Z,99346.81
2023-03-21T02:33:08.647Z,99347.38
2023-03-21T02:36:14.885Z,99338.38
2023-03-21T02:39:11.737Z,99337.44
2023-03-21T02:41:40.540Z,99342.19
2023-03-21T02:44:28.802Z,99340.66
2023-03-21T02:47:06.230Z,99326.09
2023-03-21T02:50:19.656Z,99336.56
2023-03-21T02:52:48.805Z,99336.28
2023-03-21T02:55:24.374Z,99339.47
2023-03-21T02:58:11.706Z,99325.81
2023-03-21T03:01:38.296Z,99331.31
2023-03-21T03:04:27.869Z,99331.19
2023-03-21T03:07:24.705Z,99323.88
2023-03-21T03:10:09.264Z,99309.00
2023-03-21T03:12:48.834Z,99309.63
2023-03-21T03:16:07.826Z,99311.69
2023-03-21T03:18:54.514Z,99316.53
2023-03-21T03:21:43.509Z,99307.97
2023-03-21T03:24:27.519Z,99313.00
2023-03-21T03:27:10.449Z,99303.22
2023-03-21T03:29:44.304Z,99303.16
2023-03-21T03:32:21.477Z,99302.94
2023-03-21T03:34:56.537Z,99308.84
2023-03-21T03:37:32.252Z,99308.16
2023-03-21T03:40:03.299Z,99305.72
2023-03-21T03:42:36.457Z,99300.50
2023-03-21T03:45:14.746Z,99304.84
2023-03-21T03:48:13.166Z,99299.31
2023-03-21T03:51:01.451Z,99300.88
2023-03-21T03:54:19.392Z,99297.75
2023-03-21T03:56:47.735Z,99300.19
2023-03-21T03:59:22.053Z,99299.06
2023-03-21T04:01:59.438Z,99297.41
2023-03-21T04:04:29.349Z,99293.03
2023-03-21T04:06:59.114Z,99291.94
2023-03-21T04:09:43.177Z,99293.69
2023-03-21T04:12:14.202Z,99286.03
2023-03-21T04:14:53.331Z,99289.56
2023-03-21T04:17:22.975Z,99282.69
2023-03-21T04:19:55.590Z,99281.97
2023-03-21T04:22:27.190Z,99282.97
2023-03-21T04:24:54.752Z,99285.81
2023-03-21T04:27:22.470Z,99289.53
2023-03-21T04:30:25.174Z,99285.31
2023-03-21T04:32:57.876Z,99280.28
2023-03-21T04:35:28.527Z,99282.16
2023-03-21T04:37:56.832Z,99287.31
2023-03-21T04:40:25.679Z,99278.59
2023-03-21T04:42:55.969Z,99284.75
2023-03-21T04:45:23.550Z,99286.63
2023-03-21T04:47:51.282Z,99292.03
2023-03-21T04:50:18.996Z,99286.19
2023-03-21T04:52:46.464Z,99284.66
2023-03-21T04:55:14.760Z,99291.72
2023-03-21T04:57:43.121Z,99285.06
2023-03-21T05:00:11.393Z,99283.34
2023-03-21T05:02:39.341Z,99275.91
2023-03-21T05:05:11.311Z,99296.66
2023-03-21T05:07:41.008Z,99284.69
2023-03-21T05:10:11.986Z,99282.06
2023-03-21T05:12:42.045Z,99282.22
2023-03-21T05:15:10.026Z,99275.22
2023-03-21T05:17:38.182Z,99287.44
2023-03-21T05:20:11.421Z,99285.72
2023-03-21T05:22:40.830Z,99279.22
2023-03-21T05:25:13.410Z,99277.59
2023-03-21T05:28:05.586Z,99273.34
2023-03-21T05:30:34.105Z,99278.34
2023-03-21T05:33:02.916Z,99282.81
2023-03-21T05:35:31.406Z,99279.56
2023-03-21T05:38:02.306Z,99276.19
2023-03-21T05:40:34.533Z,99275.44
2023-03-21T05:43:03.437Z,99275.66
2023-03-21T05:45:31.234Z,99280.13
2023-03-21T05:47:59.045Z,99282.91
2023-03-21T05:50:32.332Z,99277.03
2023-03-21T05:53:10.980Z,99282.41
2023-03-21T05:55:39.018Z,99274.91
2023-03-21T05:58:11.148Z,99277.53
2023-03-21T06:00:45.964Z,99275.38
2023-03-21T06:03:24.554Z,99282.28
2023-03-21T06:06:10.750Z,99274.00
2023-03-21T06:08:49.736Z,99271.84
2023-03-21T06:11:38.106Z,99272.63
2023-03-21T06:14:26.064Z,99265.69
2023-03-21T06:17:20.298Z,99271.09
2023-03-21T06:20:01.977Z,99266.00
2023-03-21T06:22:35.827Z,99274.38
2023-03-21T06:25:05.857Z,99271.81
2023-03-21T06:27:34.595Z,99262.41
2023-03-21T06:30:03.233Z,99257.78
2023-03-21T06:32:41.776Z,99252.91
2023-03-21T06:35:14.029Z,99255.00
2023-03-21T06:37:42.742Z,99243.91
2023-03-21T06:40:12.009Z,99245.50
2023-03-21T06:42:40.539Z,99242.19
2023-03-21T06:45:11.630Z,99245.00
2023-03-21T06:47:39.628Z,99244.41
2023-03-21T06:50:17.214Z,99250.03
2023-03-21T06:52:45.872Z,99242.00
2023-03-21T06:55:14.870Z,99239.44
2023-03-21T06:57:45.862Z,99234.66
2023-03-21T07:00:15.052Z,99229.38
2023-03-21T07:02:48.309Z,99221.59
2023-03-21T07:05:20.452Z,99231.00
2023-03-21T07:07:48.788Z,99230.69
2023-03-21T07:10:17.223Z,99207.81
2023-03-21T07:12:54.475Z,99222.63
2023-03-21T07:15:26.234Z,99221.34
2023-03-21T07:17:53.991Z,99216.31
2023-03-21T07:20:21.663Z,99223.34
2023-03-21T07:22:49.755Z,99214.09
2023-03-21T07:25:18.212Z,99224.72
2023-03-21T07:28:16.941Z,99220.63
2023-03-21T07:35:29.837Z,99220.88
2023-03-21T07:37:57.578Z,99212.25
2023-03-21T07:40:25.408Z,99215.94
2023-03-21T07:42:53.102Z,99216.03
2023-03-21T07:45:30.504Z,99217.06
2023-03-21T07:47:57.998Z,99214.72
2023-03-21T07:50:25.633Z,99210.25
2023-03-21T07:52:53.271Z,99206.06
2023-03-21T07:55:21.395Z,99205.28
2023-03-21T07:57:52.657Z,99208.84
2023-03-21T08:00:23.675Z,99215.00
2023-03-21T08:02:58.778Z,99211.66
2023-03-21T08:05:35.098Z,99201.47
2023-03-21T08:08:04.077Z,99207.44
2023-03-21T08:10:31.903Z,99202.41
2023-03-21T08:12:59.408Z,99202.56
2023-03-21T08:15:27.079Z,99203.88
2023-03-21T08:18:10.360Z,99191.50
2023-03-21T08:21:20.757Z,99205.25
2023-03-21T08:24:34.564Z,99198.16
2023-03-21T08:27:45.863Z,99198.38
2023-03-21T08:30:56.843Z,99189.84
2023-03-21T08:33:56.198Z,99190.03
2023-03-21T08:37:13.503Z,99191.53
2023-03-21T08:40:52.574Z,99194.28
2023-03-21T08:44:56.305Z,99192.16
2023-03-21T08:48:01.755Z,99184.25
2023-03-21T09:06:11.337Z,99189.88
2023-03-21T09:08:39.187Z,99185.22
2023-03-21T09:11:07.066Z,99184.31
2023-03-21T09:13:37.558Z,99181.59
2023-03-21T09:16:48.855Z,99190.63
2023-03-21T09:19:35.670Z,99195.78
2023-03-21T09:22:04.764Z,99182.06
2023-03-21T09:24:32.466Z,99183.09
2023-03-21T09:27:00.800Z,99182.56
2023-03-21T09:29:29.244Z,99167.94
2023-03-21T09:31:57.713Z,99169.94
2023-03-21T09:34:26.491Z,99160.41
2023-03-21T09:36:56.684Z,99171.91
2023-03-21T09:39:24.380Z,99173.06
2023-03-21T09:42:04.180Z,99164.72
2023-03-21T09:44:51.783Z,99162.69
2023-03-21T09:47:34.942Z,99164.00
2023-03-21T09:50:14.905Z,99153.13
2023-03-21T09:52:55.765Z,99138.00
2023-03-21T09:55:35.063Z,99137.91
2023-03-21T09:58:28.421Z,99121.19
2023-03-21T10:01:33.075Z,99122.03
2023-03-21T10:04:04.996Z,99115.56
2023-03-21T10:06:38.034Z,99110.53
2023-03-21T10:09:28.344Z,99108.44
2023-03-21T10:12:14.947Z,99109.16
2023-03-21T10:14:45.633Z,99109.47
2023-03-21T10:17:34.197Z,99110.97
2023-03-21T10:20:16.282Z,99104.59
2023-03-21T10:22:46.962Z,99098.88
2023-03-21T10:25:56.639Z,99105.78
2023-03-21T10:29:03.658Z,99104.00
2023-03-21T10:32:20.804Z,99103.34
2023-03-21T10:40:00.892Z,99097.34
2023-03-21T10:42:36.822Z,99091.00
2023-03-21T10:45:15.885Z,99089.53
2023-03-21T10:47:44.385Z,99073.38
2023-03-21T10:50:16.258Z,99079.66
2023-03-21T10:53:37.516Z,99082.50
2023-03-21T10:56:26.782Z,99074.00
2023-03-21T10:58:58.995Z,99079.75
2023-03-21T11:01:36.648Z,99072.13
2023-03-21T11:04:14.044Z,99082.13
2023-03-21T11:07:00.560Z,99073.09
2023-03-21T11:13:26.819Z,99059.22
2023-03-21T11:15:58.306Z,99059.94
2023-03-21T11:19:21.809Z,99060.81
2023-03-21T11:21:58.345Z,99046.34
2023-03-21T11:24:31.859Z,99049.78
2023-03-21T11:27:00.077Z,99044.88
2023-03-21T11:29:32.919Z,99046.13
2023-03-21T11:32:10.633Z,99043.03
2023-03-21T11:34:53.830Z,99044.84
2023-03-21T11:53:40.653Z,99022.00
2023-03-21T11:56:26.224Z,99019.84
2023-03-21T11:59:24.922Z,99010.88
2023-03-21T12:02:22.036Z,99005.53
2023-03-21T12:05:05.577Z,98999.81
2023-03-21T12:08:01.790Z,98997.81
2023-03-21T12:10:44.855Z,98995.81
2023-03-21T12:13:32.126Z,99007.47
2023-03-21T12:16:43.639Z,99000.97
2023-03-21T12:19:26.371Z,98990.25
2023-03-21T12:22:12.158Z,98987.00
2023-03-21T12:24:51.037Z,99000.44
2023-03-21T12:27:24.308Z,99001.06
2023-03-21T12:30:01.094Z,98986.72
2023-03-21T12:32:35.697Z,98988.22
2023-03-21T12:35:27.794Z,98982.97
2023-03-21T12:38:05.938Z,98986.00
2023-03-21T12:40:42.109Z,98980.47
2023-03-21T12:43:24.716Z,98974.63
2023-03-21T12:46:01.902Z,98966.53
2023-03-21T12:48:36.403Z,98977.03
2023-03-21T12:51:08.582Z,98961.63
2023-03-21T12:54:01.152Z,98973.94
2023-03-21T12:57:05.923Z,98969.16
2023-03-21T12:59:48.537Z,98962.19
2023-03-21T13:02:18.619Z,98967.47
2023-03-21T13:04:51.933Z,98975.38
2023-03-21T13:07:25.321Z,98969.19
2023-03-21T13:09:55.466Z,98981.47
2023-03-21T13:12:39.006Z,98989.19
2023-03-21T13:15:12.535Z,98981.88
2023-03-21T13:17:59.086Z,98987.66
2023-03-21T13:21:05.924Z,98986.06
2023-03-21T13:24:01.132Z,98982.88
2023-03-21T13:31:08.149Z,98988.94
2023-03-21T13:38:10.976Z,98977.09
2023-03-21T13:41:49.256Z,98986.13
2023-03-21T13:45:37.835Z,98986.72
2023-03-21T13:48:58.448Z,98982.69
2023-03-21T13:51:29.355Z,98978.88
2023-03-21T14:06:45.842Z,98969.75
2023-03-21T14:09:29.065Z,98966.00
2023-03-21T14:12:03.833Z,98974.41
2023-03-21T14:14:40.416Z,98968.19
2023-03-21T14:17:26.528Z,98956.06
2023-03-21T14:19:56.780Z,98959.16
2023-03-21T14:22:24.230Z,98969.41
2023-03-21T14:25:02.438Z,98967.34
2023-03-21T14:27:34.836Z,98983.41
2023-03-21T14:30:03.564Z,98972.13
2023-03-21T14:32:31.805Z,98972.16
2023-03-21T14:35:01.906Z,98963.53
2023-03-21T14:37:39.190Z,98963.50
2023-03-21T14:40:19.431Z,98968.03
2023-03-21T14:42:49.428Z,98973.00
2023-03-21T14:45:48.511Z,98978.44
2023-03-21T14:48:52.643Z,98968.88
2023-03-21T14:51:26.465Z,98966.97
2023-03-21T14:53:54.027Z,98972.09
2023-03-21T14:56:25.294Z,98969.47
2023-03-21T14:58:54.158Z,98959.09
2023-03-21T15:01:32.230Z,98955.66
2023-03-21T15:04:01.848Z,98965.06
2023-03-21T15:06:42.485Z,98964.88
2023-03-21T15:09:34.544Z,98964.81
2023-03-21T15:16:07.590Z,98965.66
2023-03-21T15:19:48.201Z,98964.81
2023-03-21T15:35:16.936Z,98980.94
2023-03-21T15:37:57.182Z,98978.16
2023-03-21T15:40:31.060Z,98978.78
2023-03-21T15:43:16.091Z,98978.97
2023-03-21T15:45:53.473Z,98983.28
2023-03-21T15:48:29.385Z,98972.69
2023-03-21T15:51:06.386Z,98977.88
2023-03-21T15:53:36.284Z,98978.56
2023-03-21T15:56:16.632Z,98982.81
2023-03-21T15:58:47.893Z,98982.88
2023-03-21T16:01:18.952Z,98985.38
2023-03-21T16:03:49.344Z,98976.00
2023-03-21T16:06:22.145Z,98974.28
2023-03-21T16:09:03.469Z,98991.25
2023-03-21T16:11:43.089Z,98983.53
2023-03-21T16:14:11.038Z,98989.47
2023-03-21T16:16:38.754Z,98985.06
2023-03-21T16:19:07.382Z,98984.13
2023-03-21T16:21:38.240Z,98995.34
2023-03-21T16:24:08.331Z,98985.00
2023-03-21T16:26:39.736Z,98989.22
2023-03-21T16:29:08.510Z,98988.38
2023-03-21T16:31:37.264Z,99004.69
2023-03-21T16:34:05.297Z,98999.63
2023-03-21T16:36:37.148Z,99000.41
2023-03-21T16:39:17.250Z,99003.16
2023-03-21T16:41:45.998Z,98999.56
2023-03-21T16:44:13.761Z,98996.84
2023-03-21T16:46:41.303Z,99003.81
2023-03-21T16:49:23.948Z,99005.59
2023-03-21T16:51:52.654Z,99013.88
2023-03-21T16:54:20.381Z,99002.59
2023-03-21T16:56:51.649Z,99011.03
2023-03-21T16:59:19.850Z,99008.63
2023-03-21T17:01:48.846Z,99005.91
2023-03-21T17:04:17.866Z,99009.16
2023-03-21T17:06:49.301Z,99014.94
2023-03-21T17:09:19.779Z,99010.94
2023-03-21T17:11:47.782Z,99016.72
2023-03-21T17:14:18.905Z,99020.91
2023-03-21T17:16:46.727Z,99029.44
2023-03-21T17:19:20.214Z,99026.69
2023-03-21T17:21:47.786Z,99040.41
2023-03-21T17:24:15.744Z,99035.09
2023-03-21T17:26:43.512Z,99041.75
2023-03-21T17:29:13.993Z,99039.81
2023-03-21T17:31:42.510Z,99054.47
2023-03-21T17:34:11.155Z,99058.69
2023-03-21T17:36:41.311Z,99055.25
2023-03-21T17:39:15.579Z,99062.91
2023-03-21T17:41:43.306Z,99066.13
2023-03-21T17:44:10.851Z,99064.25
2023-03-21T17:46:38.533Z,99079.72
2023-03-21T17:49:07.032Z,99074.59
2023-03-21T17:51:34.673Z,99072.75
2023-03-21T17:54:02.265Z,99082.84
2023-03-21T17:56:36.562Z,99075.94
2023-03-21T17:59:06.303Z,99084.38
2023-03-21T18:01:35.746Z,99078.22
2023-03-21T18:04:05.265Z,99076.31
2023-03-21T18:06:34.685Z,99074.38
2023-03-21T18:09:07.221Z,99074.00
2023-03-21T18:11:34.874Z,99080.75
2023-03-21T18:14:15.281Z,99077.78
2023-03-21T18:16:44.705Z,99081.22
2023-03-21T18:19:13.386Z,99087.13
2023-03-21T18:21:45.378Z,99081.06
2023-03-21T18:24:14.326Z,99082.66
2023-03-21T18:26:43.640Z,99079.03
2023-03-21T18:32:06.831Z,99074.53
2023-03-21T18:34:38.732Z,99085.66
2023-03-21T18:37:09.694Z,99096.69
2023-03-21T18:39:38.366Z,99087.09
2023-03-21T18:42:07.045Z,99099.88
2023-03-21T18:44:39.060Z,99092.03
2023-03-21T18:47:07.688Z,99098.66
2023-03-21T18:52:24.029Z,99112.31
2023-03-21T18:54:51.581Z,99106.94
2023-03-21T18:57:37.485Z,99112.75
2023-03-21T19:00:17.021Z,99111.97
2023-03-21T19:02:48.099Z,99113.56
2023-03-21T19:05:17.763Z,99113.28
2023-03-21T19:07:46.592Z,99115.84
2023-03-21T19:10:18.511Z,99120.09
2023-03-21T19:12:54.853Z,99117.47
2023-03-21T19:15:24.424Z,99112.97
2023-03-21T19:20:46.259Z,99120.53
2023-03-21T19:23:14.348Z,99125.41
2023-03-21T19:25:43.893Z,99124.59
2023-03-21T19:28:11.556Z,99127.16
2023-03-21T19:30:39.538Z,99119.34
2023-03-21T19:33:07.663Z,99124.44
2023-03-21T19:35:37.511Z,99125.06
2023-03-21T19:38:05.230Z,99127.59
2023-03-21T19:40:32.990Z,99137.00
2023-03-21T19:43:10.530Z,99137.84
2023-03-21T19:45:48.276Z,99142.97
2023-03-21T19:48:16.592Z,99126.63
2023-03-21T19:51:20.203Z,99134.25
2023-03-21T19:53:34.060Z,99127.34
2023-03-21T19:56:03.850Z,99128.03
2023-03-21T19:58:35.109Z,99130.81
2023-03-21T20:01:02.690Z,99130.72
2023-03-21T20:03:30.614Z,99132.41
2023-03-21T20:06:07.045Z,99136.75
2023-03-21T20:08:58.041Z,99138.19
2023-03-21T20:11:23.176Z,99138.16
2023-03-21T20:13:50.785Z,99145.91
2023-03-21T20:16:21.452Z,99150.97
2023-03-21T20:18:49.015Z,99139.78
2023-03-21T20:21:18.438Z,99147.56
2023-03-21T20:23:51.408Z,99148.41
2023-03-21T20:26:19.761Z,99146.69
2023-03-21T20:28:56.622Z,99152.66
2023-03-21T20:31:35.537Z,99149.44
2023-03-21T20:34:03.147Z,99163.88
2023-03-21T20:36:40.122Z,99158.69
2023-03-21T20:39:07.843Z,99151.78
2023-03-21T20:41:35.460Z,99152.44
2023-03-21T20:46:51.253Z,99154.69
2023-03-21T20:49:23.024Z,99146.09
2023-03-21T20:52:47.801Z,99146.97
2023-03-21T20:54:38.463Z,99152.84
2023-03-21T20:57:05.891Z,99169.38
2023-03-21T20:59:33.779Z,99151.97
2023-03-21T21:02:01.403Z,99154.56
2023-03-21T21:04:55.842Z,99154.44
2023-03-21T21:07:22.753Z,99157.81
2023-03-21T21:09:50.524Z,99155.91
2023-03-21T21:12:19.539Z,99159.50
2023-03-21T21:14:48.290Z,99158.50
2023-03-21T21:17:33.921Z,99163.88
2023-03-21T21:20:16.948Z,99159.44
2023-03-21T21:22:59.007Z,99164.59
2023-03-21T21:25:30.676Z,99168.91
2023-03-21T21:27:58.484Z,99168.03
2023-03-21T21:30:25.918Z,99164.34
2023-03-21T21:32:54.033Z,99165.31
2023-03-21T21:35:22.503Z,99162.66
2023-03-21T21:37:51.617Z,99161.69
2023-03-21T21:40:20.747Z,99161.81
2023-03-21T21:42:48.401Z,99174.72
2023-03-21T21:45:16.088Z,99172.28
2023-03-21T21:47:45.466Z,99178.19
2023-03-21T21:50:14.411Z,99167.97
2023-03-21T21:52:43.889Z,99175.84
2023-03-21T21:55:13.202Z,99175.84
2023-03-21T21:57:41.081Z,99176.66
2023-03-21T22:00:13.753Z,99179.25
2023-03-21T22:02:42.494Z,99174.88
2023-03-21T22:05:10.649Z,99181.75
2023-03-21T22:07:39.289Z,99184.22
2023-03-21T22:10:08.140Z,99184.44
2023-03-21T22:12:35.737Z,99183.59
2023-03-21T22:15:05.427Z,99188.59
2023-03-21T22:17:33.455Z,99192.97
2023-03-21T22:20:06.531Z,99196.44
2023-03-21T22:22:34.969Z,99190.50
2023-03-21T22:25:03.895Z,99192.91
2023-03-21T22:27:31.746Z,99192.91
2023-03-21T22:30:04.926Z,99203.94
2023-03-21T22:32:37.993Z,99209.28
2023-03-21T22:35:07.060Z,99209.09
2023-03-21T22:37:36.800Z,99201.19
2023-03-21T22:40:08.228Z,99213.16
2023-03-21T22:42:39.819Z,99211.16
2023-03-21T22:45:09.364Z,99213.47
2023-03-21T22:47:37.530Z,99200.56
2023-03-21T22:50:06.316Z,99212.53
2023-03-21T22:52:33.991Z,99224.63
2023-03-21T22:55:01.623Z,99231.34
2023-03-21T22:57:30.742Z,99227.84
2023-03-21T22:59:58.380Z,99221.81
2023-03-21T23:02:26.080Z,99229.44
2023-03-21T23:04:53.482Z,99225.19
2023-03-21T23:07:21.277Z,99234.38
2023-03-21T23:09:48.837Z,99231.72
2023-03-21T23:12:17.585Z,99231.47
2023-03-21T23:14:45.357Z,99239.13
2023-03-21T23:17:12.837Z,99238.19
2023-03-21T23:19:41.151Z,99236.50
2023-03-21T23:22:09.030Z,99233.69
2023-03-21T23:24:36.470Z,99233.84
2023-03-21T23:27:04.106Z,99229.66
2023-03-21T23:29:31.622Z,99226.91
2023-03-21T23:31:59.140Z,99228.66
2023-03-21T23:34:28.095Z,99237.38
2023-03-21T23:36:55.562Z,99232.22
2023-03-21T23:39:23.080Z,99231.34
2023-03-21T23:41:50.642Z,99234.81
2023-03-21T23:44:18.178Z,99229.66
2023-03-21T23:46:45.909Z,99231.47
2023-03-21T23:49:15.131Z,99234.06
2023-03-21T23:51:42.827Z,99239.13
2023-03-21T23:54:10.788Z,99237.44
2023-03-21T23:56:38.269Z,99231.34
2023-03-21T23:59:06.367Z,99237.28
